sensor_id;sensor_type;location;lat;lon;timestamp;temperature;humidity
10155;DHT22;5118;48.570;7.916;2023-07-29T00:01:29;18.70;99.90
10155;DHT22;5118;48.570;7.916;2023-07-29T00:03:57;18.80;99.90
10155;DHT22;5118;48.570;7.916;2023-07-29T00:06:26;18.80;99.90
10155;DHT22;5118;48.570;7.916;2023-07-29T00:08:55;18.80;99.90
10155;DHT22;5118;48.570;7.916;2023-07-29T00:11:25;18.80;99.90
10155;DHT22;5118;48.570;7.916;2023-07-29T00:13:54;18.80;99.90
10155;DHT22;5118;48.570;7.916;2023-07-29T00:16:23;18.80;99.90
10155;DHT22;5118;48.570;7.916;2023-07-29T00:18:51;18.70;99.90
10155;DHT22;5118;48.570;7.916;2023-07-29T00:21:19;18.70;99.90
10155;DHT22;5118;48.570;7.916;2023-07-29T00:23:48;18.80;99.90
10155;DHT22;5118;48.570;7.916;2023-07-29T00:26:16;18.80;99.90
10155;DHT22;5118;48.570;7.916;2023-07-29T00:28:46;18.80;99.90
10155;DHT22;5118;48.570;7.916;2023-07-29T00:31:14;18.90;99.90
10155;DHT22;5118;48.570;7.916;2023-07-29T00:33:43;18.80;99.90
10155;DHT22;5118;48.570;7.916;2023-07-29T00:36:11;18.80;99.90
10155;DHT22;5118;48.570;7.916;2023-07-29T00:38:40;18.80;99.90
10155;DHT22;5118;48.570;7.916;2023-07-29T00:41:10;18.70;99.90
10155;DHT22;5118;48.570;7.916;2023-07-29T00:43:41;18.70;99.90
10155;DHT22;5118;48.570;7.916;2023-07-29T00:46:11;18.60;99.90
10155;DHT22;5118;48.570;7.916;2023-07-29T00:48:41;18.60;99.90
10155;DHT22;5118;48.570;7.916;2023-07-29T00:51:09;18.50;99.90
10155;DHT22;5118;48.570;7.916;2023-07-29T00:53:38;18.40;99.90
10155;DHT22;5118;48.570;7.916;2023-07-29T00:56:07;18.30;99.90
10155;DHT22;5118;48.570;7.916;2023-07-29T00:58:38;18.30;99.90
10155;DHT22;5118;48.570;7.916;2023-07-29T01:01:06;18.20;99.90
10155;DHT22;5118;48.570;7.916;2023-07-29T01:03:36;18.10;99.90
10155;DHT22;5118;48.570;7.916;2023-07-29T01:06:12;18.10;99.90
10155;DHT22;5118;48.570;7.916;2023-07-29T01:08:51;18.10;99.90
10155;DHT22;5118;48.570;7.916;2023-07-29T01:11:33;18.10;99.90
10155;DHT22;5118;48.570;7.916;2023-07-29T01:14:07;18.20;99.90
10155;DHT22;5118;48.570;7.916;2023-07-29T01:16:42;18.20;99.90
10155;DHT22;5118;48.570;7.916;2023-07-29T01:19:19;18.30;99.90
10155;DHT22;5118;48.570;7.916;2023-07-29T01:21:52;18.30;99.90
10155;DHT22;5118;48.570;7.916;2023-07-29T01:24:22;18.40;99.90
10155;DHT22;5118;48.570;7.916;2023-07-29T01:26:51;18.40;99.90
10155;DHT22;5118;48.570;7.916;2023-07-29T01:29:19;18.40;99.90
10155;DHT22;5118;48.570;7.916;2023-07-29T01:31:51;18.50;99.90
10155;DHT22;5118;48.570;7.916;2023-07-29T01:34:28;18.50;99.90
10155;DHT22;5118;48.570;7.916;2023-07-29T01:36:59;18.50;99.90
10155;DHT22;5118;48.570;7.916;2023-07-29T01:39:32;18.50;99.90
10155;DHT22;5118;48.570;7.916;2023-07-29T01:42:04;18.50;99.90
10155;DHT22;5118;48.570;7.916;2023-07-29T01:44:33;18.50;99.90
10155;DHT22;5118;48.570;7.916;2023-07-29T01:47:02;18.60;99.90
10155;DHT22;5118;48.570;7.916;2023-07-29T01:49:34;18.60;99.90
10155;DHT22;5118;48.570;7.916;2023-07-29T01:52:03;18.70;99.90
10155;DHT22;5118;48.570;7.916;2023-07-29T01:54:33;18.70;99.90
10155;DHT22;5118;48.570;7.916;2023-07-29T01:57:01;18.80;99.90
10155;DHT22;5118;48.570;7.916;2023-07-29T01:59:30;18.90;99.90
10155;DHT22;5118;48.570;7.916;2023-07-29T02:01:59;18.90;99.90
10155;DHT22;5118;48.570;7.916;2023-07-29T02:04:28;18.90;99.90
10155;DHT22;5118;48.570;7.916;2023-07-29T02:06:57;18.90;99.90
10155;DHT22;5118;48.570;7.916;2023-07-29T02:09:25;19.00;99.90
10155;DHT22;5118;48.570;7.916;2023-07-29T02:11:56;19.00;99.90
10155;DHT22;5118;48.570;7.916;2023-07-29T02:14:25;19.00;99.90
10155;DHT22;5118;48.570;7.916;2023-07-29T02:16:54;19.00;99.90
10155;DHT22;5118;48.570;7.916;2023-07-29T02:19:22;19.10;99.90
10155;DHT22;5118;48.570;7.916;2023-07-29T02:21:50;19.10;99.90
10155;DHT22;5118;48.570;7.916;2023-07-29T02:24:19;19.10;99.90
10155;DHT22;5118;48.570;7.916;2023-07-29T02:26:47;19.10;99.90
10155;DHT22;5118;48.570;7.916;2023-07-29T02:29:17;19.20;99.90
10155;DHT22;5118;48.570;7.916;2023-07-29T02:31:46;19.20;99.90
10155;DHT22;5118;48.570;7.916;2023-07-29T02:34:14;19.20;99.90
10155;DHT22;5118;48.570;7.916;2023-07-29T02:36:43;19.20;99.90
10155;DHT22;5118;48.570;7.916;2023-07-29T02:39:13;19.20;99.90
10155;DHT22;5118;48.570;7.916;2023-07-29T02:41:41;19.30;99.90
10155;DHT22;5118;48.570;7.916;2023-07-29T02:44:10;19.30;99.90
10155;DHT22;5118;48.570;7.916;2023-07-29T02:46:40;19.20;99.90
10155;DHT22;5118;48.570;7.916;2023-07-29T02:49:08;19.10;99.90
10155;DHT22;5118;48.570;7.916;2023-07-29T02:51:37;19.00;99.90
10155;DHT22;5118;48.570;7.916;2023-07-29T02:54:05;18.80;99.90
10155;DHT22;5118;48.570;7.916;2023-07-29T02:56:34;18.70;99.90
10155;DHT22;5118;48.570;7.916;2023-07-29T02:59:03;18.60;99.90
10155;DHT22;5118;48.570;7.916;2023-07-29T03:01:32;18.60;99.90
10155;DHT22;5118;48.570;7.916;2023-07-29T03:04:04;18.50;99.90
10155;DHT22;5118;48.570;7.916;2023-07-29T03:06:32;18.50;99.90
10155;DHT22;5118;48.570;7.916;2023-07-29T03:09:01;18.40;99.90
10155;DHT22;5118;48.570;7.916;2023-07-29T03:11:30;18.50;99.90
10155;DHT22;5118;48.570;7.916;2023-07-29T03:13:58;18.40;99.90
10155;DHT22;5118;48.570;7.916;2023-07-29T03:16:29;18.40;99.90
10155;DHT22;5118;48.570;7.916;2023-07-29T03:18:59;18.30;99.90
10155;DHT22;5118;48.570;7.916;2023-07-29T03:21:29;18.30;99.90
10155;DHT22;5118;48.570;7.916;2023-07-29T03:23:58;18.20;99.90
10155;DHT22;5118;48.570;7.916;2023-07-29T03:26:27;18.20;99.90
10155;DHT22;5118;48.570;7.916;2023-07-29T03:28:56;18.20;99.90
10155;DHT22;5118;48.570;7.916;2023-07-29T03:31:25;18.10;99.90
10155;DHT22;5118;48.570;7.916;2023-07-29T03:33:53;18.10;99.90
10155;DHT22;5118;48.570;7.916;2023-07-29T03:36:21;18.10;99.90
10155;DHT22;5118;48.570;7.916;2023-07-29T03:38:54;18.10;99.90
10155;DHT22;5118;48.570;7.916;2023-07-29T03:41:22;18.10;99.90
10155;DHT22;5118;48.570;7.916;2023-07-29T03:43:51;18.20;99.90
10155;DHT22;5118;48.570;7.916;2023-07-29T03:46:19;18.20;99.90
10155;DHT22;5118;48.570;7.916;2023-07-29T03:48:51;18.20;99.90
10155;DHT22;5118;48.570;7.916;2023-07-29T03:51:20;18.20;99.90
10155;DHT22;5118;48.570;7.916;2023-07-29T03:53:50;18.20;99.90
10155;DHT22;5118;48.570;7.916;2023-07-29T03:56:21;18.20;99.90
10155;DHT22;5118;48.570;7.916;2023-07-29T03:58:50;18.20;99.90
10155;DHT22;5118;48.570;7.916;2023-07-29T04:01:19;18.20;99.90
10155;DHT22;5118;48.570;7.916;2023-07-29T04:03:47;18.20;99.90
10155;DHT22;5118;48.570;7.916;2023-07-29T04:06:16;18.20;99.90
10155;DHT22;5118;48.570;7.916;2023-07-29T04:08:44;18.10;99.90
10155;DHT22;5118;48.570;7.916;2023-07-29T04:11:13;18.10;99.90
10155;DHT22;5118;48.570;7.916;2023-07-29T04:13:43;18.00;99.90
10155;DHT22;5118;48.570;7.916;2023-07-29T04:16:11;18.00;99.90
10155;DHT22;5118;48.570;7.916;2023-07-29T04:18:40;17.90;99.90
10155;DHT22;5118;48.570;7.916;2023-07-29T04:21:09;17.90;99.90
10155;DHT22;5118;48.570;7.916;2023-07-29T04:23:37;17.90;99.90
10155;DHT22;5118;48.570;7.916;2023-07-29T04:26:05;17.90;99.90
10155;DHT22;5118;48.570;7.916;2023-07-29T04:28:34;17.90;99.90
10155;DHT22;5118;48.570;7.916;2023-07-29T04:31:03;17.90;99.90
10155;DHT22;5118;48.570;7.916;2023-07-29T04:33:32;17.90;99.90
10155;DHT22;5118;48.570;7.916;2023-07-29T04:36:04;17.90;99.90
10155;DHT22;5118;48.570;7.916;2023-07-29T04:38:33;18.00;99.90
10155;DHT22;5118;48.570;7.916;2023-07-29T04:41:01;18.00;99.90
10155;DHT22;5118;48.570;7.916;2023-07-29T04:43:31;18.00;99.90
10155;DHT22;5118;48.570;7.916;2023-07-29T04:46:00;18.00;99.90
10155;DHT22;5118;48.570;7.916;2023-07-29T04:48:30;18.10;99.90
10155;DHT22;5118;48.570;7.916;2023-07-29T04:50:58;18.10;99.90
10155;DHT22;5118;48.570;7.916;2023-07-29T04:53:26;18.20;99.90
10155;DHT22;5118;48.570;7.916;2023-07-29T04:55:56;18.20;99.90
10155;DHT22;5118;48.570;7.916;2023-07-29T04:58:24;18.20;99.90
10155;DHT22;5118;48.570;7.916;2023-07-29T05:00:53;18.30;99.90
10155;DHT22;5118;48.570;7.916;2023-07-29T05:03:22;18.30;99.90
10155;DHT22;5118;48.570;7.916;2023-07-29T05:05:52;18.30;99.90
10155;DHT22;5118;48.570;7.916;2023-07-29T05:08:23;18.40;99.90
10155;DHT22;5118;48.570;7.916;2023-07-29T05:10:52;18.40;99.90
10155;DHT22;5118;48.570;7.916;2023-07-29T05:13:22;18.40;99.90
10155;DHT22;5118;48.570;7.916;2023-07-29T05:15:51;18.40;99.90
10155;DHT22;5118;48.570;7.916;2023-07-29T05:18:19;18.50;99.90
10155;DHT22;5118;48.570;7.916;2023-07-29T05:20:49;18.50;99.90
10155;DHT22;5118;48.570;7.916;2023-07-29T05:23:19;18.50;99.90
10155;DHT22;5118;48.570;7.916;2023-07-29T05:25:48;18.50;99.90
10155;DHT22;5118;48.570;7.916;2023-07-29T05:28:16;18.50;99.90
10155;DHT22;5118;48.570;7.916;2023-07-29T05:30:44;18.60;99.90
10155;DHT22;5118;48.570;7.916;2023-07-29T05:33:13;18.60;99.90
10155;DHT22;5118;48.570;7.916;2023-07-29T05:35:42;18.60;99.90
10155;DHT22;5118;48.570;7.916;2023-07-29T05:38:11;18.60;99.90
10155;DHT22;5118;48.570;7.916;2023-07-29T05:40:40;18.60;99.90
10155;DHT22;5118;48.570;7.916;2023-07-29T05:43:09;18.70;99.90
10155;DHT22;5118;48.570;7.916;2023-07-29T05:45:37;18.70;99.90
10155;DHT22;5118;48.570;7.916;2023-07-29T05:48:06;18.60;99.90
10155;DHT22;5118;48.570;7.916;2023-07-29T05:50:35;18.60;99.90
10155;DHT22;5118;48.570;7.916;2023-07-29T05:53:03;18.60;99.90
10155;DHT22;5118;48.570;7.916;2023-07-29T05:55:32;18.60;99.90
10155;DHT22;5118;48.570;7.916;2023-07-29T05:58:02;18.60;99.90
10155;DHT22;5118;48.570;7.916;2023-07-29T06:00:30;18.60;99.90
10155;DHT22;5118;48.570;7.916;2023-07-29T06:02:59;18.50;99.90
10155;DHT22;5118;48.570;7.916;2023-07-29T06:05:28;18.50;99.90
10155;DHT22;5118;48.570;7.916;2023-07-29T06:07:57;18.50;99.90
10155;DHT22;5118;48.570;7.916;2023-07-29T06:10:26;18.50;99.90
10155;DHT22;5118;48.570;7.916;2023-07-29T06:12:55;18.40;99.90
10155;DHT22;5118;48.570;7.916;2023-07-29T06:15:25;18.40;99.90
10155;DHT22;5118;48.570;7.916;2023-07-29T06:17:54;18.40;99.90
10155;DHT22;5118;48.570;7.916;2023-07-29T06:20:23;18.50;99.90
10155;DHT22;5118;48.570;7.916;2023-07-29T06:22:52;18.50;99.90
10155;DHT22;5118;48.570;7.916;2023-07-29T06:25:20;18.60;99.90
10155;DHT22;5118;48.570;7.916;2023-07-29T06:27:49;18.70;99.90
10155;DHT22;5118;48.570;7.916;2023-07-29T06:30:18;18.80;99.90
10155;DHT22;5118;48.570;7.916;2023-07-29T06:32:48;18.90;99.90
10155;DHT22;5118;48.570;7.916;2023-07-29T06:35:16;19.00;99.90
10155;DHT22;5118;48.570;7.916;2023-07-29T06:37:45;19.00;99.90
10155;DHT22;5118;48.570;7.916;2023-07-29T06:40:13;19.10;99.90
10155;DHT22;5118;48.570;7.916;2023-07-29T06:42:42;19.10;99.90
10155;DHT22;5118;48.570;7.916;2023-07-29T06:45:10;19.20;99.90
10155;DHT22;5118;48.570;7.916;2023-07-29T06:47:39;19.20;99.90
10155;DHT22;5118;48.570;7.916;2023-07-29T06:50:12;19.30;99.90
10155;DHT22;5118;48.570;7.916;2023-07-29T06:52:40;19.40;99.90
10155;DHT22;5118;48.570;7.916;2023-07-29T06:55:08;19.40;99.90
10155;DHT22;5118;48.570;7.916;2023-07-29T06:57:37;19.40;99.90
10155;DHT22;5118;48.570;7.916;2023-07-29T07:00:06;19.50;99.90
10155;DHT22;5118;48.570;7.916;2023-07-29T07:02:36;19.60;99.90
10155;DHT22;5118;48.570;7.916;2023-07-29T07:05:05;19.70;99.90
10155;DHT22;5118;48.570;7.916;2023-07-29T07:07:35;19.90;99.90
10155;DHT22;5118;48.570;7.916;2023-07-29T07:10:05;20.00;99.90
10155;DHT22;5118;48.570;7.916;2023-07-29T07:12:34;20.20;99.90
10155;DHT22;5118;48.570;7.916;2023-07-29T07:15:03;20.50;99.90
10155;DHT22;5118;48.570;7.916;2023-07-29T07:17:31;20.70;99.90
10155;DHT22;5118;48.570;7.916;2023-07-29T07:20:00;20.80;99.90
10155;DHT22;5118;48.570;7.916;2023-07-29T07:22:29;20.80;99.90
10155;DHT22;5118;48.570;7.916;2023-07-29T07:24:58;20.80;99.90
10155;DHT22;5118;48.570;7.916;2023-07-29T07:27:27;20.80;99.90
10155;DHT22;5118;48.570;7.916;2023-07-29T07:29:55;20.80;99.90
10155;DHT22;5118;48.570;7.916;2023-07-29T07:32:24;20.90;99.90
10155;DHT22;5118;48.570;7.916;2023-07-29T07:34:53;21.00;99.90
10155;DHT22;5118;48.570;7.916;2023-07-29T07:37:21;21.20;99.90
10155;DHT22;5118;48.570;7.916;2023-07-29T07:39:49;21.40;99.90
10155;DHT22;5118;48.570;7.916;2023-07-29T07:42:19;21.60;99.90
10155;DHT22;5118;48.570;7.916;2023-07-29T07:44:47;21.80;99.90
10155;DHT22;5118;48.570;7.916;2023-07-29T07:47:16;22.00;99.90
10155;DHT22;5118;48.570;7.916;2023-07-29T07:49:44;22.10;99.90
10155;DHT22;5118;48.570;7.916;2023-07-29T07:52:13;22.10;99.90
10155;DHT22;5118;48.570;7.916;2023-07-29T07:54:41;22.10;99.90
10155;DHT22;5118;48.570;7.916;2023-07-29T07:57:10;22.20;99.90
10155;DHT22;5118;48.570;7.916;2023-07-29T07:59:40;22.20;99.90
10155;DHT22;5118;48.570;7.916;2023-07-29T08:02:09;22.30;99.90
10155;DHT22;5118;48.570;7.916;2023-07-29T08:04:38;22.30;99.90
10155;DHT22;5118;48.570;7.916;2023-07-29T08:07:06;22.40;99.90
10155;DHT22;5118;48.570;7.916;2023-07-29T08:09:35;22.50;99.90
10155;DHT22;5118;48.570;7.916;2023-07-29T08:12:03;22.70;99.90
10155;DHT22;5118;48.570;7.916;2023-07-29T08:14:32;22.90;99.90
10155;DHT22;5118;48.570;7.916;2023-07-29T08:17:01;23.10;99.90
10155;DHT22;5118;48.570;7.916;2023-07-29T08:19:31;23.30;99.90
10155;DHT22;5118;48.570;7.916;2023-07-29T08:22:02;23.50;99.90
10155;DHT22;5118;48.570;7.916;2023-07-29T08:24:30;23.50;99.90
10155;DHT22;5118;48.570;7.916;2023-07-29T08:27:00;23.60;99.90
10155;DHT22;5118;48.570;7.916;2023-07-29T08:29:28;23.50;99.90
10155;DHT22;5118;48.570;7.916;2023-07-29T08:31:57;23.50;99.90
10155;DHT22;5118;48.570;7.916;2023-07-29T08:34:27;23.60;99.90
10155;DHT22;5118;48.570;7.916;2023-07-29T08:36:56;23.80;99.90
10155;DHT22;5118;48.570;7.916;2023-07-29T08:39:24;23.90;99.90
10155;DHT22;5118;48.570;7.916;2023-07-29T08:42:00;23.90;99.90
10155;DHT22;5118;48.570;7.916;2023-07-29T08:44:35;23.90;99.90
10155;DHT22;5118;48.570;7.916;2023-07-29T08:47:05;23.80;99.90
10155;DHT22;5118;48.570;7.916;2023-07-29T08:49:35;23.60;99.90
10155;DHT22;5118;48.570;7.916;2023-07-29T08:52:05;23.50;99.90
10155;DHT22;5118;48.570;7.916;2023-07-29T08:54:35;23.20;99.90
10155;DHT22;5118;48.570;7.916;2023-07-29T08:57:04;22.90;99.90
10155;DHT22;5118;48.570;7.916;2023-07-29T08:59:33;22.60;99.90
10155;DHT22;5118;48.570;7.916;2023-07-29T09:02:01;22.20;99.90
10155;DHT22;5118;48.570;7.916;2023-07-29T09:04:30;21.90;99.90
10155;DHT22;5118;48.570;7.916;2023-07-29T09:07:00;21.60;99.90
10155;DHT22;5118;48.570;7.916;2023-07-29T09:09:29;21.40;99.90
10155;DHT22;5118;48.570;7.916;2023-07-29T09:11:57;21.30;99.90
10155;DHT22;5118;48.570;7.916;2023-07-29T09:14:26;21.20;99.90
10155;DHT22;5118;48.570;7.916;2023-07-29T09:16:55;21.30;99.90
10155;DHT22;5118;48.570;7.916;2023-07-29T09:19:25;21.40;99.90
10155;DHT22;5118;48.570;7.916;2023-07-29T09:21:54;21.60;99.90
10155;DHT22;5118;48.570;7.916;2023-07-29T09:24:23;21.80;99.90
10155;DHT22;5118;48.570;7.916;2023-07-29T09:26:52;22.10;99.90
10155;DHT22;5118;48.570;7.916;2023-07-29T09:29:22;22.50;99.90
10155;DHT22;5118;48.570;7.916;2023-07-29T09:31:51;22.80;99.90
10155;DHT22;5118;48.570;7.916;2023-07-29T09:34:19;23.00;99.90
10155;DHT22;5118;48.570;7.916;2023-07-29T09:36:50;23.10;99.90
10155;DHT22;5118;48.570;7.916;2023-07-29T09:39:24;23.30;99.90
10155;DHT22;5118;48.570;7.916;2023-07-29T09:41:52;23.40;99.90
10155;DHT22;5118;48.570;7.916;2023-07-29T09:44:21;23.60;99.90
10155;DHT22;5118;48.570;7.916;2023-07-29T09:46:49;23.80;99.90
10155;DHT22;5118;48.570;7.916;2023-07-29T09:49:22;24.00;99.90
10155;DHT22;5118;48.570;7.916;2023-07-29T09:51:50;24.10;99.90
10155;DHT22;5118;48.570;7.916;2023-07-29T09:54:19;24.10;99.90
10155;DHT22;5118;48.570;7.916;2023-07-29T09:56:50;24.00;99.90
10155;DHT22;5118;48.570;7.916;2023-07-29T09:59:19;23.90;99.90
10155;DHT22;5118;48.570;7.916;2023-07-29T10:01:48;24.10;99.90
10155;DHT22;5118;48.570;7.916;2023-07-29T10:04:17;24.20;99.90
10155;DHT22;5118;48.570;7.916;2023-07-29T10:06:46;24.30;99.90
10155;DHT22;5118;48.570;7.916;2023-07-29T10:09:15;24.50;99.90
10155;DHT22;5118;48.570;7.916;2023-07-29T10:11:45;24.70;99.90
10155;DHT22;5118;48.570;7.916;2023-07-29T10:14:15;24.90;99.90
10155;DHT22;5118;48.570;7.916;2023-07-29T10:16:46;24.80;99.90
10155;DHT22;5118;48.570;7.916;2023-07-29T10:19:15;25.00;99.90
10155;DHT22;5118;48.570;7.916;2023-07-29T10:21:48;24.90;99.90
10155;DHT22;5118;48.570;7.916;2023-07-29T10:24:19;25.10;99.90
10155;DHT22;5118;48.570;7.916;2023-07-29T10:26:50;25.30;99.90
10155;DHT22;5118;48.570;7.916;2023-07-29T10:29:20;25.60;99.90
10155;DHT22;5118;48.570;7.916;2023-07-29T10:31:52;25.80;99.90
10155;DHT22;5118;48.570;7.916;2023-07-29T10:34:21;25.80;99.90
10155;DHT22;5118;48.570;7.916;2023-07-29T10:36:50;25.80;99.90
10155;DHT22;5118;48.570;7.916;2023-07-29T10:39:20;25.80;99.90
10155;DHT22;5118;48.570;7.916;2023-07-29T10:41:58;26.00;99.90
10155;DHT22;5118;48.570;7.916;2023-07-29T10:44:50;26.20;99.90
10155;DHT22;5118;48.570;7.916;2023-07-29T10:47:21;26.40;99.90
10155;DHT22;5118;48.570;7.916;2023-07-29T10:49:52;26.60;99.90
10155;DHT22;5118;48.570;7.916;2023-07-29T10:52:30;26.60;99.90
10155;DHT22;5118;48.570;7.916;2023-07-29T10:54:58;26.50;99.90
10155;DHT22;5118;48.570;7.916;2023-07-29T10:57:32;26.70;99.90
10155;DHT22;5118;48.570;7.916;2023-07-29T11:00:04;26.80;99.90
10155;DHT22;5118;48.570;7.916;2023-07-29T11:02:35;26.80;99.90
10155;DHT22;5118;48.570;7.916;2023-07-29T11:05:05;27.20;99.90
10155;DHT22;5118;48.570;7.916;2023-07-29T11:07:43;27.50;99.90
10155;DHT22;5118;48.570;7.916;2023-07-29T11:10:13;27.90;99.90
10155;DHT22;5118;48.570;7.916;2023-07-29T11:12:44;28.10;99.90
10155;DHT22;5118;48.570;7.916;2023-07-29T11:15:18;28.30;99.90
10155;DHT22;5118;48.570;7.916;2023-07-29T11:17:49;28.70;99.90
10155;DHT22;5118;48.570;7.916;2023-07-29T11:20:20;29.10;99.90
10155;DHT22;5118;48.570;7.916;2023-07-29T11:22:49;29.30;99.90
10155;DHT22;5118;48.570;7.916;2023-07-29T11:25:18;29.50;99.90
10155;DHT22;5118;48.570;7.916;2023-07-29T11:27:47;29.60;99.90
10155;DHT22;5118;48.570;7.916;2023-07-29T11:30:18;29.80;99.90
10155;DHT22;5118;48.570;7.916;2023-07-29T11:32:47;29.70;99.90
10155;DHT22;5118;48.570;7.916;2023-07-29T11:35:17;29.60;99.90
10155;DHT22;5118;48.570;7.916;2023-07-29T11:37:47;29.60;99.90
10155;DHT22;5118;48.570;7.916;2023-07-29T11:40:16;29.70;99.90
10155;DHT22;5118;48.570;7.916;2023-07-29T11:42:48;29.80;99.90
10155;DHT22;5118;48.570;7.916;2023-07-29T11:45:19;30.00;99.90
10155;DHT22;5118;48.570;7.916;2023-07-29T11:47:51;30.20;99.90
10155;DHT22;5118;48.570;7.916;2023-07-29T11:50:20;30.70;99.90
10155;DHT22;5118;48.570;7.916;2023-07-29T11:52:49;31.10;99.90
10155;DHT22;5118;48.570;7.916;2023-07-29T11:55:17;31.80;99.90
10155;DHT22;5118;48.570;7.916;2023-07-29T11:57:51;32.50;99.90
10155;DHT22;5118;48.570;7.916;2023-07-29T12:00:21;32.60;99.90
10155;DHT22;5118;48.570;7.916;2023-07-29T12:02:50;32.60;99.90
10155;DHT22;5118;48.570;7.916;2023-07-29T12:05:21;32.50;99.90
10155;DHT22;5118;48.570;7.916;2023-07-29T12:07:50;32.30;99.90
10155;DHT22;5118;48.570;7.916;2023-07-29T12:10:20;32.20;99.40
10155;DHT22;5118;48.570;7.916;2023-07-29T12:12:50;32.20;98.90
10155;DHT22;5118;48.570;7.916;2023-07-29T12:15:27;32.10;98.30
10155;DHT22;5118;48.570;7.916;2023-07-29T12:17:57;32.00;98.20
10155;DHT22;5118;48.570;7.916;2023-07-29T12:20:26;31.60;98.30
10155;DHT22;5118;48.570;7.916;2023-07-29T12:22:56;31.50;98.40
10155;DHT22;5118;48.570;7.916;2023-07-29T12:25:28;31.60;98.40
10155;DHT22;5118;48.570;7.916;2023-07-29T12:28:00;32.00;97.60
10155;DHT22;5118;48.570;7.916;2023-07-29T12:30:31;32.20;95.30
10155;DHT22;5118;48.570;7.916;2023-07-29T12:33:00;31.80;94.30
10155;DHT22;5118;48.570;7.916;2023-07-29T12:35:38;31.60;94.70
10155;DHT22;5118;48.570;7.916;2023-07-29T12:38:06;31.30;95.10
10155;DHT22;5118;48.570;7.916;2023-07-29T12:40:38;31.40;95.70
10155;DHT22;5118;48.570;7.916;2023-07-29T12:43:07;31.70;95.90
10155;DHT22;5118;48.570;7.916;2023-07-29T12:45:37;32.00;94.50
10155;DHT22;5118;48.570;7.916;2023-07-29T12:48:09;32.10;94.20
10155;DHT22;5118;48.570;7.916;2023-07-29T12:50:38;31.80;94.10
10155;DHT22;5118;48.570;7.916;2023-07-29T12:53:08;31.50;94.10
10155;DHT22;5118;48.570;7.916;2023-07-29T12:55:39;31.20;93.80
10155;DHT22;5118;48.570;7.916;2023-07-29T12:58:08;31.30;94.00
10155;DHT22;5118;48.570;7.916;2023-07-29T13:00:38;31.30;93.50
10155;DHT22;5118;48.570;7.916;2023-07-29T13:03:07;31.00;93.50
10155;DHT22;5118;48.570;7.916;2023-07-29T13:05:36;30.80;93.40
10155;DHT22;5118;48.570;7.916;2023-07-29T13:08:04;30.60;93.60
10155;DHT22;5118;48.570;7.916;2023-07-29T13:10:33;30.50;94.30
10155;DHT22;5118;48.570;7.916;2023-07-29T13:13:01;30.70;94.60
10155;DHT22;5118;48.570;7.916;2023-07-29T13:15:30;31.50;95.20
10155;DHT22;5118;48.570;7.916;2023-07-29T13:18:00;32.40;93.60
10155;DHT22;5118;48.570;7.916;2023-07-29T13:20:28;32.90;90.60
10155;DHT22;5118;48.570;7.916;2023-07-29T13:22:58;32.70;86.30
10155;DHT22;5118;48.570;7.916;2023-07-29T13:25:26;32.10;85.90
10155;DHT22;5118;48.570;7.916;2023-07-29T13:27:55;31.70;87.80
10155;DHT22;5118;48.570;7.916;2023-07-29T13:30:23;31.30;88.40
10155;DHT22;5118;48.570;7.916;2023-07-29T13:32:52;30.90;88.50
10155;DHT22;5118;48.570;7.916;2023-07-29T13:35:22;30.30;89.60
10155;DHT22;5118;48.570;7.916;2023-07-29T13:37:52;29.90;90.00
10155;DHT22;5118;48.570;7.916;2023-07-29T13:40:20;29.70;90.40
10155;DHT22;5118;48.570;7.916;2023-07-29T13:42:49;29.40;91.00
10155;DHT22;5118;48.570;7.916;2023-07-29T13:45:17;29.00;91.70
10155;DHT22;5118;48.570;7.916;2023-07-29T13:47:46;28.80;92.00
10155;DHT22;5118;48.570;7.916;2023-07-29T13:50:15;28.60;92.90
10155;DHT22;5118;48.570;7.916;2023-07-29T13:52:46;28.50;93.20
10155;DHT22;5118;48.570;7.916;2023-07-29T13:55:15;28.30;93.20
10155;DHT22;5118;48.570;7.916;2023-07-29T13:57:43;28.20;93.60
10155;DHT22;5118;48.570;7.916;2023-07-29T14:00:13;28.20;94.30
10155;DHT22;5118;48.570;7.916;2023-07-29T14:02:42;28.00;93.90
10155;DHT22;5118;48.570;7.916;2023-07-29T14:05:11;28.00;93.70
10155;DHT22;5118;48.570;7.916;2023-07-29T14:07:40;28.00;93.50
10155;DHT22;5118;48.570;7.916;2023-07-29T14:10:10;27.90;93.60
10155;DHT22;5118;48.570;7.916;2023-07-29T14:12:39;27.90;93.60
10155;DHT22;5118;48.570;7.916;2023-07-29T14:15:08;28.00;94.10
10155;DHT22;5118;48.570;7.916;2023-07-29T14:17:36;28.10;94.30
10155;DHT22;5118;48.570;7.916;2023-07-29T14:20:06;28.20;93.70
10155;DHT22;5118;48.570;7.916;2023-07-29T14:22:36;28.30;93.60
10155;DHT22;5118;48.570;7.916;2023-07-29T14:25:06;28.40;93.60
10155;DHT22;5118;48.570;7.916;2023-07-29T14:27:37;28.70;94.10
10155;DHT22;5118;48.570;7.916;2023-07-29T14:30:06;29.60;93.80
10155;DHT22;5118;48.570;7.916;2023-07-29T14:32:35;30.80;92.00
10155;DHT22;5118;48.570;7.916;2023-07-29T14:35:04;31.80;90.60
10155;DHT22;5118;48.570;7.916;2023-07-29T14:37:34;32.80;87.90
10155;DHT22;5118;48.570;7.916;2023-07-29T14:40:04;33.60;82.80
10155;DHT22;5118;48.570;7.916;2023-07-29T14:42:32;34.10;77.10
10155;DHT22;5118;48.570;7.916;2023-07-29T14:45:04;34.60;75.00
10155;DHT22;5118;48.570;7.916;2023-07-29T14:47:33;35.50;71.20
10155;DHT22;5118;48.570;7.916;2023-07-29T14:50:02;36.40;66.50
10155;DHT22;5118;48.570;7.916;2023-07-29T14:52:30;36.70;62.20
10155;DHT22;5118;48.570;7.916;2023-07-29T14:54:59;37.00;59.40
10155;DHT22;5118;48.570;7.916;2023-07-29T14:57:27;36.40;54.50
10155;DHT22;5118;48.570;7.916;2023-07-29T14:59:56;35.80;55.10
10155;DHT22;5118;48.570;7.916;2023-07-29T15:02:25;35.10;55.90
10155;DHT22;5118;48.570;7.916;2023-07-29T15:04:54;34.40;55.10
10155;DHT22;5118;48.570;7.916;2023-07-29T15:07:23;33.30;56.60
10155;DHT22;5118;48.570;7.916;2023-07-29T15:09:52;32.70;59.40
10155;DHT22;5118;48.570;7.916;2023-07-29T15:12:20;32.20;60.10
10155;DHT22;5118;48.570;7.916;2023-07-29T15:14:49;32.30;62.70
10155;DHT22;5118;48.570;7.916;2023-07-29T15:17:17;32.30;61.80
10155;DHT22;5118;48.570;7.916;2023-07-29T15:19:47;32.80;62.50
10155;DHT22;5118;48.570;7.916;2023-07-29T15:22:17;33.30;59.80
10155;DHT22;5118;48.570;7.916;2023-07-29T15:24:45;33.40;58.60
10155;DHT22;5118;48.570;7.916;2023-07-29T15:27:14;33.10;58.00
10155;DHT22;5118;48.570;7.916;2023-07-29T15:29:42;32.50;58.20
10155;DHT22;5118;48.570;7.916;2023-07-29T15:32:10;31.90;59.30
10155;DHT22;5118;48.570;7.916;2023-07-29T15:34:39;31.30;61.50
10155;DHT22;5118;48.570;7.916;2023-07-29T15:37:08;30.70;61.90
10155;DHT22;5118;48.570;7.916;2023-07-29T15:39:37;30.10;63.90
10155;DHT22;5118;48.570;7.916;2023-07-29T15:42:08;29.40;66.30
10155;DHT22;5118;48.570;7.916;2023-07-29T15:44:37;28.90;68.40
10155;DHT22;5118;48.570;7.916;2023-07-29T15:47:06;28.50;70.10
10155;DHT22;5118;48.570;7.916;2023-07-29T15:49:34;28.30;71.80
10155;DHT22;5118;48.570;7.916;2023-07-29T15:52:03;28.10;73.40
10155;DHT22;5118;48.570;7.916;2023-07-29T15:54:33;27.80;75.30
10155;DHT22;5118;48.570;7.916;2023-07-29T15:57:01;27.50;78.50
10155;DHT22;5118;48.570;7.916;2023-07-29T15:59:34;26.80;91.80